Colby, KS

10:05 PM CST on February 26, 2015 (GMT -0600)
145 E Cherry - K0FJ | Change Station
CLOSE
Current Station
Personal Weather Station
Location: Colby, KS
Elevation: 3150 ft
Nearby Weather Stations

Elev 3150 ft 39.39 °N, 101.05 °W | Updated 3 minutes ago

Scattered Clouds
Scattered Clouds
13.5 °F
Feels Like 14 °F
N
3.0
Wind Variable Wind from ENE
Gusts 4.0 mph

Today
High -- | Low -- °F
--% Chance of Precip.
Yesterday
High -- | Low -- °F
Precip. -- in
7:21 AM 6:33 PM
Waxing Gibbous, 65% visible
Pressure 30.38 in
Visibility 10.0 miles
Clouds Scattered Clouds 5000 ft
Scattered Clouds 12000 ft
Windchill 14 °F
Dew Point 1 °F
Humidity 57%
Rainfall 0.00 in
Snow Depth Not available.
UV 0 out of 12
Pollen 1.20 out of 12
Air Quality Not available.
Flu Activity Not available.
METAR KCBK 270355Z AUTO 09005KT 10SM SCT050 SCT120 M10/M13 A3038 RMK AO2

More Conditions Fewer Conditions

Pressure 30.38 in
Visibility 10.0 miles
Clouds Scattered Clouds 5000 ft
Scattered Clouds 12000 ft
Windchill 14 °F
Dew Point 1 °F
Humidity 57%
Rainfall 0.00 in
Snow Depth Not available.
UV 0 out of 12
Pollen 1.20 out of 12
Air Quality Not available.
Flu Activity Not available.
METAR KCBK 270355Z AUTO 09005KT 10SM SCT050 SCT120 M10/M13 A3038 RMK AO2

More Conditions Fewer Conditions

10-Day Weather Forecast

Almanac

Astronomy

Feb. 26, 2015 Rise Set
Actual Time
Civil Twilight
Nautical Twilight
Astronomical Twilight
Moon
Length of Visible Light
Length of Day
Tomorrow will be .
, % of the Moon is Illuminated

Today's Extremes

State Highs State Lows

Community

WunderPhotos

Upload Photos

1,800,609 photos uploaded!

WunderBlogs® & News

Nearby

Air Quality

  Air Quality AQ Index Pollutant
Not available.

Snow Depth

Station Depth Elevation

Earthquake Activity

City Distance Mag. Time & Date
Minimum magnitude displayed is 2.5.

Coastal Water Temperatures

Place Temperature

Nearby Weather Stations